Auburn, Mississippi
Current Conditions -  °F | °C
As of 5:53 AM on Thursday 27 Nov 2014 (Local Time) from KMCB Reporting Station
Clear Clear  
Wind Chill:   Ceiling: Unl
Heat Index:   Visibility: 10mi
Dew Point:   Wind: 9mph
Humidity: 63%   Direction: 330°NNW
Pressure: 30.38"   Gusts: NA
Location:  31.3682°N, 90.6714°W
Report Text: KMCB 271153Z AUTO 33008KT 10SM CLR 07/00 A3038 RMK AO2 SLP286 T00670000 10100 20061 53025
Loading
Personal Weather Stations






























Interactive Weather Map New forecast layout! Learn more

10-Day Weather Forecast

Advertisements
Track Severe Weather on mobile